Flugplatz Erfurt

Bericht für EDDE

vom 17.07. um 23:20 UTC

Wind 7 kt aus 210°

Sichtweite 10 km oder mehr

gute Sicht, keine Wolken < 5000 ft, keine CB, keine Wettererscheinungen (CAVOK)

Temperatur 12.0°C

Taupunkt 10.0°C

Luftfeuchtigkeit 88%

Luftdruck 1014 hPa

EDDE 172320Z 21007KT CAVOK 12/10 Q1014

Prognose für EDDE

vom 17.07. um 00:00 UTC

Zwischen 00:00 UTC und 00:00 UTC

variable Windrichtung mit 3 kt

Sichtweite 10 km oder mehr

keine signifikanten Wettererscheinungen

keine Wolken


Zwischen 00:00 und 00:00 UTC übergehend zu

Wind 5 kt aus 280°

Sichtweite 10 km oder mehr

keine signifikanten Wettererscheinungen

keine Wolken

TAF EDDE 172300Z 1800/1824 VRB03KT CAVOK BECMG 1810/1812 28005KT
Impressum